Time;durP1;ratioP1;P1;durP2;ratioP2;P2;SDS_P1;SDS_P2;PMS_P1;PMS_P2;Temp;Humidity;BMP_temperature;BMP_pressure;BME280_temperature;BME280_humidity;BME280_pressure;Samples;Min_cycle;Max_cycle;Signal;HPM_P1;HPM_P2
2022/12/12 00:01:17;;;;;;;0.80;0.80;;;1.60;99.90;;;;;;4965341;28;20053;-78
2022/12/12 00:03:43;;;;;;;0.70;0.70;;;1.50;99.90;;;;;;4976154;28;20598;-78
2022/12/12 00:06:09;;;;;;;0.77;0.77;;;1.40;99.90;;;;;;4962656;28;20830;-78
2022/12/12 00:08:36;;;;;;;0.80;0.80;;;1.40;99.90;;;;;;4958458;28;20049;-79
2022/12/12 00:11:04;;;;;;;0.70;0.70;;;1.30;99.90;;;;;;4951704;28;20056;-78
2022/12/12 00:13:29;;;;;;;0.80;0.80;;;1.30;99.90;;;;;;4951752;28;20067;-78
2022/12/12 00:15:55;;;;;;;0.73;0.73;;;1.40;99.90;;;;;;4958575;28;20085;-78
2022/12/12 00:18:22;;;;;;;0.80;0.80;;;1.40;99.90;;;;;;4952629;28;20399;-78
2022/12/12 00:20:55;;;;;;;0.80;0.80;;;1.40;99.90;;;;;;4958906;28;20245;-78
2022/12/12 00:23:39;;;;;;;;;;;1.40;99.90;;;;;;4961006;28;20114;-78
2022/12/12 00:26:07;;;;;;;0.80;0.80;;;1.50;99.90;;;;;;4952180;28;19921;-78
2022/12/12 00:28:34;;;;;;;0.80;0.80;;;1.40;99.90;;;;;;4939798;28;20045;-78
2022/12/12 00:31:00;;;;;;;0.80;0.80;;;1.40;99.90;;;;;;4943996;28;20152;-79
2022/12/12 00:33:26;;;;;;;0.80;0.80;;;1.30;99.90;;;;;;4930775;28;20063;-79
2022/12/12 00:35:54;;;;;;;0.80;0.80;;;1.30;99.90;;;;;;4947266;28;20231;-79
2022/12/12 00:38:22;;;;;;;0.80;0.80;;;1.30;99.90;;;;;;4943819;28;20420;-80
2022/12/12 00:40:55;;;;;;;0.80;0.80;;;1.30;99.90;;;;;;4945010;28;20159;-79
2022/12/12 00:43:21;;;;;;;0.80;0.80;;;1.30;99.90;;;;;;4947736;28;20847;-80
2022/12/12 00:45:47;;;;;;;0.80;0.80;;;1.30;99.90;;;;;;4950225;28;20299;-79
2022/12/12 00:48:13;;;;;;;0.80;0.80;;;1.20;99.90;;;;;;4932673;28;20052;-80
2022/12/12 00:50:39;;;;;;;0.80;0.80;;;1.30;99.90;;;;;;4943381;28;20882;-80
2022/12/12 00:53:05;;;;;;;0.70;0.70;;;1.20;99.90;;;;;;4943161;28;20446;-79
2022/12/12 00:55:32;;;;;;;0.80;0.80;;;1.20;99.90;;;;;;4948474;28;20486;-79
2022/12/12 00:57:58;;;;;;;0.80;0.80;;;1.30;99.90;;;;;;4942689;28;20053;-79
2022/12/12 01:00:24;;;;;;;0.80;0.80;;;1.30;99.90;;;;;;4955103;28;20064;-79
2022/12/12 01:02:50;;;;;;;0.90;0.90;;;1.30;99.90;;;;;;4951431;28;20768;-79
2022/12/12 01:05:16;;;;;;;0.80;0.80;;;1.30;99.90;;;;;;4946047;28;20087;-79
2022/12/12 01:07:42;;;;;;;0.80;0.80;;;1.30;99.90;;;;;;4947289;28;20801;-79
2022/12/12 01:10:09;;;;;;;0.80;0.80;;;1.30;99.90;;;;;;4934258;28;20108;-79
2022/12/12 01:12:41;;;;;;;0.80;0.80;;;1.40;99.90;;;;;;4933478;28;20056;-78
2022/12/12 01:15:08;;;;;;;0.80;0.80;;;1.40;99.90;;;;;;4945988;28;20160;-79
2022/12/12 01:17:36;;;;;;;0.80;0.80;;;1.40;99.90;;;;;;4933611;28;20249;-79
2022/12/12 01:20:16;;;;;;;0.80;0.80;;;1.40;99.90;;;;;;4948736;28;20577;-79
2022/12/12 01:22:43;;;;;;;0.80;0.80;;;1.40;99.90;;;;;;4931449;28;20045;-80
2022/12/12 01:25:10;;;;;;;0.80;0.80;;;1.40;99.90;;;;;;4943398;28;20049;-79
2022/12/12 01:27:36;;;;;;;0.80;0.80;;;1.40;99.90;;;;;;4941907;28;20044;-79
2022/12/12 01:30:03;;;;;;;0.70;0.70;;;1.40;99.90;;;;;;4944243;28;20048;-79
2022/12/12 01:32:29;;;;;;;0.80;0.80;;;1.30;99.90;;;;;;4940038;28;20542;-79
2022/12/12 01:34:55;;;;;;;0.77;0.77;;;1.30;99.90;;;;;;4938627;28;20614;-79
2022/12/12 01:37:21;;;;;;;0.80;0.80;;;1.40;99.90;;;;;;4938856;28;20048;-79
2022/12/12 01:39:47;;;;;;;0.70;0.70;;;1.50;99.90;;;;;;4939851;28;20507;-79
2022/12/12 01:42:15;;;;;;;0.77;0.77;;;1.40;99.90;;;;;;4935859;28;20516;-77
2022/12/12 01:44:47;;;;;;;0.80;0.80;;;1.50;99.90;;;;;;4939883;28;20204;-79
2022/12/12 01:47:16;;;;;;;0.80;0.80;;;1.40;99.90;;;;;;4942909;28;20549;-79
2022/12/12 01:49:45;;;;;;;0.80;0.80;;;1.40;99.90;;;;;;4943479;28;20049;-79
2022/12/12 01:52:20;;;;;;;0.80;0.80;;;1.50;99.90;;;;;;4944571;28;20106;-79
2022/12/12 01:54:51;;;;;;;0.77;0.77;;;1.50;99.90;;;;;;4941822;28;20053;-80
2022/12/12 01:57:25;;;;;;;0.80;0.80;;;1.50;99.90;;;;;;4949132;28;20052;-79
2022/12/12 01:59:51;;;;;;;0.70;0.70;;;1.50;99.90;;;;;;4940203;28;20148;-79
2022/12/12 02:02:17;;;;;;;0.80;0.80;;;1.30;99.90;;;;;;4939677;28;20052;-79
2022/12/12 02:04:43;;;;;;;0.70;0.70;;;1.40;99.90;;;;;;4950607;28;20048;-79
2022/12/12 02:07:09;;;;;;;0.70;0.70;;;1.50;99.90;;;;;;4946787;28;20134;-79
2022/12/12 02:09:37;;;;;;;0.80;0.80;;;1.40;99.90;;;;;;4946518;28;20075;-79
2022/12/12 02:12:03;;;;;;;0.80;0.80;;;1.40;99.90;;;;;;4944460;28;20052;-79
2022/12/12 02:14:39;;;;;;;0.70;0.70;;;1.40;99.90;;;;;;4924672;28;20581;-79
2022/12/12 02:17:24;;;;;;;0.80;0.80;;;1.40;99.90;;;;;;4923800;28;20234;-79
2022/12/12 02:20:27;;;;;;;0.73;0.73;;;1.40;99.90;;;;;;4944905;28;20049;-78
2022/12/12 02:23:17;;;;;;;0.80;0.80;;;1.50;99.90;;;;;;4945981;28;20489;-78
2022/12/12 02:25:58;;;;;;;0.80;0.80;;;1.50;99.90;;;;;;4942269;28;21019;-79
2022/12/12 02:28:46;;;;;;;0.70;0.70;;;1.40;99.90;;;;;;4951015;28;20057;-78
2022/12/12 02:31:12;;;;;;;0.70;0.70;;;1.40;99.90;;;;;;4948859;28;20045;-79
2022/12/12 02:34:01;;;;;;;0.80;0.80;;;1.40;99.90;;;;;;4943791;28;20453;-79
2022/12/12 02:36:55;;;;;;;0.70;0.70;;;1.40;99.90;;;;;;4943942;28;20278;-79
2022/12/12 02:39:48;;;;;;;0.80;0.80;;;1.40;99.90;;;;;;4949909;28;20440;-79
2022/12/12 02:42:17;;;;;;;0.80;0.80;;;1.30;99.90;;;;;;4939494;28;20688;-79
2022/12/12 02:44:49;;;;;;;0.70;0.70;;;1.30;99.90;;;;;;4947027;28;20052;-79
2022/12/12 02:47:22;;;;;;;0.80;0.80;;;1.20;99.90;;;;;;4947388;28;20454;-79
2022/12/12 02:50:12;;;;;;;0.70;0.70;;;1.30;99.90;;;;;;4949449;28;20171;-79
2022/12/12 02:52:42;;;;;;;0.77;0.77;;;1.30;99.90;;;;;;4940968;28;20120;-79
2022/12/12 02:55:08;;;;;;;0.80;0.80;;;1.30;99.90;;;;;;4942583;28;20404;-79
2022/12/12 02:57:34;;;;;;;0.80;0.80;;;1.30;99.90;;;;;;4937336;28;20200;-79
2022/12/12 03:00:01;;;;;;;0.80;0.80;;;1.30;99.90;;;;;;4947738;28;20555;-80
2022/12/12 03:02:30;;;;;;;0.77;0.77;;;1.30;99.90;;;;;;4954517;28;20344;-79
2022/12/12 03:08:25;;;;;;;0.80;0.80;;;1.20;99.90;;;;;;4942698;28;20077;-79
2022/12/12 03:11:21;;;;;;;0.80;0.80;;;1.30;99.90;;;;;;4933674;28;20789;-79
2022/12/12 03:14:19;;;;;;;0.80;0.80;;;1.20;99.90;;;;;;4944050;28;20046;-79
2022/12/12 03:17:09;;;;;;;0.70;0.70;;;1.30;99.90;;;;;;4948947;28;20041;-79
2022/12/12 03:19:57;;;;;;;0.70;0.70;;;1.40;99.90;;;;;;4946311;28;20045;-79
2022/12/12 03:22:37;;;;;;;0.80;0.80;;;1.20;99.90;;;;;;4945085;28;20041;-80
2022/12/12 03:25:16;;;;;;;0.80;0.80;;;1.20;99.90;;;;;;4936847;28;20972;-79
2022/12/12 03:28:00;;;;;;;0.80;0.80;;;1.30;99.90;;;;;;4943410;28;20212;-79
2022/12/12 03:30:29;;;;;;;0.80;0.80;;;1.30;99.90;;;;;;4944178;28;20088;-79
2022/12/12 03:33:01;;;;;;;0.80;0.80;;;1.30;99.90;;;;;;4936931;28;20213;-79
2022/12/12 03:35:41;;;;;;;0.80;0.80;;;1.30;99.90;;;;;;4941137;28;20399;-79
2022/12/12 03:38:24;;;;;;;0.80;0.80;;;1.40;99.90;;;;;;4943128;28;20064;-79
2022/12/12 03:40:53;;;;;;;0.80;0.80;;;1.40;99.90;;;;;;4941996;28;20656;-79
2022/12/12 03:43:38;;;;;;;0.80;0.80;;;1.30;99.90;;;;;;4944671;28;20056;-80
2022/12/12 03:46:25;;;;;;;0.80;0.80;;;1.40;99.90;;;;;;4949722;28;20671;-79
2022/12/12 03:48:57;;;;;;;0.80;0.80;;;1.30;99.90;;;;;;4949754;28;20049;-79
2022/12/12 03:51:28;;;;;;;0.80;0.80;;;1.30;99.90;;;;;;4936594;28;20103;-80
2022/12/12 03:54:05;;;;;;;0.80;0.80;;;1.40;99.90;;;;;;4941458;28;20056;-79
2022/12/12 03:56:37;;;;;;;0.80;0.80;;;1.40;99.90;;;;;;4938875;28;20038;-80
2022/12/12 03:59:13;;;;;;;0.80;0.80;;;1.30;99.90;;;;;;4943164;28;20448;-80
2022/12/12 04:01:48;;;;;;;0.80;0.80;;;1.20;99.90;;;;;;4937693;28;20829;-79
2022/12/12 04:04:23;;;;;;;0.80;0.80;;;1.20;99.90;;;;;;4953469;28;20049;-79
2022/12/12 04:06:59;;;;;;;0.80;0.80;;;1.20;99.90;;;;;;4945088;28;20063;-79
2022/12/12 04:15:10;;;;;;;0.70;0.70;;;1.30;99.90;;;;;;4943340;28;20061;-79
2022/12/12 04:17:40;;;;;;;0.80;0.80;;;1.20;99.90;;;;;;4949893;28;20053;-79
2022/12/12 04:23:15;;;;;;;0.80;0.80;;;1.40;99.90;;;;;;4942908;28;20053;-79
2022/12/12 04:28:45;;;;;;;0.80;0.80;;;1.30;99.90;;;;;;4943125;28;20057;-79
2022/12/12 04:31:13;;;;;;;0.80;0.80;;;1.30;99.90;;;;;;4943663;28;20400;-79
2022/12/12 04:33:48;;;;;;;0.80;0.80;;;1.40;99.90;;;;;;4933195;28;20048;-79
2022/12/12 04:36:17;;;;;;;0.80;0.80;;;1.40;99.90;;;;;;4944438;28;20241;-79
2022/12/12 04:38:45;;;;;;;0.80;0.80;;;1.40;99.90;;;;;;4947735;28;20128;-79
2022/12/12 04:41:14;;;;;;;0.80;0.80;;;1.30;99.90;;;;;;4942717;28;20623;-79
2022/12/12 04:43:43;;;;;;;0.80;0.80;;;1.20;99.90;;;;;;4948030;28;20935;-79
2022/12/12 04:46:30;;;;;;;0.80;0.80;;;1.20;99.90;;;;;;4941888;28;20049;-79
2022/12/12 04:49:16;;;;;;;0.80;0.80;;;1.20;99.90;;;;;;4946114;28;20054;-79
2022/12/12 04:51:49;;;;;;;0.80;0.80;;;1.30;99.90;;;;;;4944516;28;20538;-79
2022/12/12 04:54:39;;;;;;;0.80;0.80;;;1.30;99.90;;;;;;4941291;28;20348;-79
2022/12/12 04:57:09;;;;;;;0.77;0.77;;;1.20;99.90;;;;;;4944707;28;20068;-79
2022/12/12 04:59:35;;;;;;;0.80;0.80;;;1.20;99.90;;;;;;4934506;28;21126;-79
2022/12/12 05:02:10;;;;;;;0.80;0.80;;;1.30;99.90;;;;;;4941025;28;20156;-80
2022/12/12 05:05:05;;;;;;;0.70;0.70;;;1.20;99.90;;;;;;4932461;28;20087;-79
2022/12/12 05:07:37;;;;;;;0.70;0.70;;;1.20;99.90;;;;;;4939273;28;20576;-79
2022/12/12 05:10:12;;;;;;;0.80;0.80;;;1.20;99.90;;;;;;4949809;28;20088;-79
2022/12/12 05:12:56;;;;;;;0.80;0.80;;;1.20;99.90;;;;;;4944900;28;20800;-79
2022/12/12 05:15:23;;;;;;;0.80;0.80;;;1.20;99.90;;;;;;4931693;28;20392;-79
2022/12/12 05:18:06;;;;;;;0.70;0.70;;;1.20;99.90;;;;;;4938448;28;20412;-79
2022/12/12 05:20:32;;;;;;;0.80;0.80;;;1.10;99.90;;;;;;4941326;28;20099;-80
2022/12/12 05:22:58;;;;;;;0.80;0.80;;;1.20;99.90;;;;;;4941512;28;20749;-79
2022/12/12 05:25:24;;;;;;;0.80;0.80;;;1.20;99.90;;;;;;4938128;28;21325;-79
2022/12/12 05:27:50;;;;;;;0.80;0.80;;;1.10;99.90;;;;;;4932258;28;20045;-79
2022/12/12 05:30:16;;;;;;;0.80;0.80;;;1.20;99.90;;;;;;4947797;28;20126;-79
2022/12/12 05:32:42;;;;;;;0.80;0.80;;;1.20;99.90;;;;;;4939978;28;20858;-79
2022/12/12 05:35:09;;;;;;;0.80;0.80;;;1.20;99.90;;;;;;4939672;28;20176;-80
2022/12/12 05:37:36;;;;;;;0.80;0.80;;;1.20;99.90;;;;;;4952540;28;20072;-80
2022/12/12 05:40:04;;;;;;;0.80;0.80;;;1.20;99.90;;;;;;4937176;28;20790;-80
2022/12/12 05:42:30;;;;;;;0.80;0.80;;;1.10;99.90;;;;;;4945440;28;20055;-80
2022/12/12 05:44:56;;;;;;;0.80;0.80;;;1.10;99.90;;;;;;4939977;28;20457;-79
2022/12/12 05:47:22;;;;;;;0.80;0.80;;;1.10;99.90;;;;;;4935862;28;20072;-79
2022/12/12 05:49:47;;;;;;;0.80;0.80;;;1.20;99.90;;;;;;4941792;28;20340;-79
2022/12/12 05:52:14;;;;;;;0.80;0.80;;;1.20;99.90;;;;;;4953950;28;20041;-79
2022/12/12 05:54:40;;;;;;;0.80;0.80;;;1.10;99.90;;;;;;4942250;28;20587;-79
2022/12/12 05:57:16;;;;;;;0.70;0.70;;;1.20;99.90;;;;;;4939821;28;20377;-79
2022/12/12 05:59:42;;;;;;;0.80;0.80;;;1.20;99.90;;;;;;4943806;28;20379;-79
2022/12/12 06:02:08;;;;;;;0.80;0.80;;;1.10;99.90;;;;;;4938203;28;20049;-79
2022/12/12 06:04:34;;;;;;;0.80;0.80;;;1.10;99.90;;;;;;4939865;28;20932;-79
2022/12/12 06:07:00;;;;;;;0.80;0.80;;;1.10;99.90;;;;;;4943637;28;20522;-79
2022/12/12 06:09:26;;;;;;;0.77;0.77;;;1.10;99.90;;;;;;4949378;28;20077;-79
2022/12/12 06:11:51;;;;;;;0.80;0.80;;;1.10;99.90;;;;;;4944175;28;20049;-80
2022/12/12 06:14:27;;;;;;;0.80;0.80;;;1.00;99.90;;;;;;4944825;28;20060;-79
2022/12/12 06:16:52;;;;;;;0.80;0.80;;;1.10;99.90;;;;;;4940327;28;20465;-79
2022/12/12 06:19:20;;;;;;;0.80;0.80;;;1.10;99.90;;;;;;4949180;28;20065;-79
2022/12/12 06:21:46;;;;;;;0.80;0.80;;;1.00;99.90;;;;;;4943976;28;20977;-79
2022/12/12 06:24:12;;;;;;;0.80;0.80;;;0.90;99.90;;;;;;4940688;28;20052;-79
2022/12/12 06:26:38;;;;;;;0.80;0.80;;;0.90;99.90;;;;;;4949214;28;20493;-79
2022/12/12 06:29:04;;;;;;;0.80;0.80;;;0.90;99.90;;;;;;4941999;28;20242;-79
2022/12/12 06:31:32;;;;;;;0.80;0.80;;;0.90;99.90;;;;;;4926043;28;20114;-79
2022/12/12 06:33:58;;;;;;;0.80;0.80;;;0.90;99.90;;;;;;4940020;28;21124;-79
2022/12/12 06:36:24;;;;;;;0.80;0.80;;;0.90;99.90;;;;;;4940991;28;20045;-79
2022/12/12 06:38:51;;;;;;;0.77;0.77;;;0.90;99.90;;;;;;4923218;28;20888;-79
2022/12/12 06:41:17;;;;;;;0.80;0.80;;;0.80;99.90;;;;;;4934807;28;20457;-79
2022/12/12 06:43:43;;;;;;;0.80;0.80;;;0.80;99.90;;;;;;4931866;28;20104;-79
2022/12/12 06:46:14;;;;;;;0.80;0.80;;;0.80;99.90;;;;;;4939463;28;20045;-79
2022/12/12 06:48:58;;;;;;;0.80;0.80;;;0.70;99.90;;;;;;4943101;28;20072;-79
2022/12/12 06:51:28;;;;;;;0.90;0.90;;;0.70;99.90;;;;;;4941946;28;20558;-79
2022/12/12 06:53:55;;;;;;;0.80;0.80;;;0.70;99.90;;;;;;4942311;28;20058;-79
2022/12/12 06:56:23;;;;;;;0.80;0.80;;;0.70;99.90;;;;;;4936757;28;20048;-80
2022/12/12 06:58:49;;;;;;;0.80;0.80;;;0.70;99.90;;;;;;4942278;28;20422;-79
2022/12/12 07:01:18;;;;;;;0.80;0.80;;;0.50;99.90;;;;;;4940484;28;20791;-80
2022/12/12 07:03:45;;;;;;;3.50;3.35;;;0.50;99.90;;;;;;4942401;28;20558;-79
2022/12/12 07:06:11;;;;;;;0.80;0.80;;;0.50;99.90;;;;;;4940470;28;20055;-79
2022/12/12 07:08:37;;;;;;;0.80;0.80;;;0.40;99.90;;;;;;4936021;28;20075;-79
2022/12/12 07:11:10;;;;;;;0.90;0.90;;;0.40;99.90;;;;;;4939095;28;20934;-79
2022/12/12 07:13:36;;;;;;;0.80;0.80;;;0.40;99.90;;;;;;4935939;28;20500;-79
2022/12/12 07:16:02;;;;;;;0.80;0.80;;;0.30;99.90;;;;;;4938360;28;20061;-79
2022/12/12 07:18:29;;;;;;;0.90;0.90;;;0.30;99.90;;;;;;4940834;28;20582;-79
2022/12/12 07:20:55;;;;;;;0.80;0.80;;;0.20;99.90;;;;;;4945813;28;20292;-79
2022/12/12 07:23:22;;;;;;;0.80;0.80;;;0.20;99.90;;;;;;4935318;28;21606;-79
2022/12/12 07:25:48;;;;;;;0.80;0.80;;;0.10;99.90;;;;;;4934608;28;20472;-79
2022/12/12 07:28:14;;;;;;;0.90;0.90;;;0.00;99.90;;;;;;4938821;28;20465;-80
2022/12/12 07:30:42;;;;;;;1.13;1.05;;;0.00;99.90;;;;;;4939087;28;20053;-79
2022/12/12 07:33:08;;;;;;;0.80;0.80;;;0.00;99.90;;;;;;4937587;28;20866;-79
2022/12/12 07:35:35;;;;;;;0.80;0.80;;;0.00;99.90;;;;;;4944386;28;20756;-79
2022/12/12 07:38:02;;;;;;;0.80;0.80;;;-0.10;99.90;;;;;;4932335;28;20060;-79
2022/12/12 07:40:27;;;;;;;0.80;0.80;;;-0.10;99.90;;;;;;4937625;28;21056;-80
2022/12/12 07:42:53;;;;;;;0.80;0.80;;;-0.10;99.90;;;;;;4950517;28;20041;-79
2022/12/12 07:45:19;;;;;;;0.80;0.80;;;-0.10;99.90;;;;;;4942004;28;20132;-78
2022/12/12 07:47:45;;;;;;;0.80;0.80;;;-0.20;99.90;;;;;;4950456;28;20379;-80
2022/12/12 07:50:12;;;;;;;0.80;0.80;;;-0.20;99.90;;;;;;4948300;28;20156;-79
2022/12/12 07:52:38;;;;;;;0.80;0.80;;;-0.20;99.90;;;;;;4941338;28;20049;-78
2022/12/12 07:55:05;;;;;;;0.80;0.80;;;-0.10;99.90;;;;;;4941981;28;20232;-78
2022/12/12 07:57:32;;;;;;;0.80;0.80;;;-0.10;99.90;;;;;;4946542;28;20045;-79
2022/12/12 07:59:58;;;;;;;0.80;0.80;;;-0.10;99.90;;;;;;4940375;28;20310;-79
2022/12/12 08:02:24;;;;;;;0.80;0.80;;;-0.20;99.90;;;;;;4943021;28;20078;-77
2022/12/12 08:04:50;;;;;;;0.70;0.70;;;-0.20;99.90;;;;;;4939231;28;20437;-80
2022/12/12 08:07:16;;;;;;;0.80;0.80;;;-0.10;99.90;;;;;;4942999;28;20051;-77
2022/12/12 08:09:42;;;;;;;0.80;0.80;;;-0.10;99.90;;;;;;4944913;28;20441;-77
2022/12/12 08:12:08;;;;;;;0.80;0.80;;;0.00;99.90;;;;;;4942770;28;20920;-78
2022/12/12 08:14:34;;;;;;;0.80;0.80;;;0.00;99.90;;;;;;4947974;28;20057;-78
2022/12/12 08:16:59;;;;;;;0.80;0.80;;;-0.10;99.90;;;;;;4955080;28;20471;-78
2022/12/12 08:19:25;;;;;;;0.80;0.80;;;-0.20;99.90;;;;;;4940515;28;20233;-79
2022/12/12 08:21:51;;;;;;;0.80;0.80;;;-0.20;99.90;;;;;;4938607;28;20045;-79
2022/12/12 08:24:17;;;;;;;0.80;0.80;;;-0.10;99.90;;;;;;4942224;28;20075;-79
2022/12/12 08:26:44;;;;;;;0.80;0.80;;;-0.10;99.90;;;;;;4935963;28;20246;-78
2022/12/12 08:29:10;;;;;;;0.80;0.80;;;-0.10;99.90;;;;;;4941552;28;20767;-78
2022/12/12 08:31:39;;;;;;;0.80;0.80;;;0.00;99.90;;;;;;4942004;28;20045;-77
2022/12/12 08:34:05;;;;;;;0.90;0.90;;;-0.10;99.90;;;;;;4949648;28;20835;-76
2022/12/12 08:36:33;;;;;;;0.80;0.80;;;-0.10;99.90;;;;;;4937302;28;20052;-76
2022/12/12 08:39:11;;;;;;;0.80;0.80;;;0.00;99.90;;;;;;4947574;28;20487;-75
2022/12/12 08:41:40;;;;;;;0.70;0.70;;;0.00;99.90;;;;;;4947582;28;20445;-76
2022/12/12 08:44:07;;;;;;;0.80;0.80;;;-0.10;99.90;;;;;;4951251;28;20089;-76
2022/12/12 08:46:34;;;;;;;0.80;0.80;;;-0.20;99.90;;;;;;4958358;28;20046;-75
2022/12/12 08:49:00;;;;;;;0.80;0.80;;;-0.10;99.90;;;;;;4951644;28;20125;-78
2022/12/12 08:51:26;;;;;;;0.80;0.80;;;-0.10;99.90;;;;;;4950791;28;20052;-78
2022/12/12 08:53:52;;;;;;;0.80;0.80;;;0.10;99.90;;;;;;4953875;28;20494;-79
2022/12/12 08:56:20;;;;;;;0.80;0.80;;;0.20;99.90;;;;;;4952916;28;20061;-78
2022/12/12 08:58:46;;;;;;;0.80;0.80;;;0.40;99.90;;;;;;4954675;28;20044;-78
2022/12/12 09:01:21;;;;;;;0.80;0.80;;;0.40;99.90;;;;;;4958059;28;20055;-79
2022/12/12 09:03:48;;;;;;;0.80;0.80;;;0.50;99.90;;;;;;4945135;28;20048;-79
2022/12/12 09:06:15;;;;;;;0.80;0.80;;;0.60;99.90;;;;;;4939031;28;20045;-79
2022/12/12 09:08:41;;;;;;;0.80;0.80;;;0.60;99.90;;;;;;4935543;28;20041;-79
2022/12/12 09:11:07;;;;;;;0.80;0.80;;;0.70;99.90;;;;;;4942505;28;20045;-80
2022/12/12 09:13:33;;;;;;;0.80;0.80;;;0.80;99.90;;;;;;4959235;28;20523;-79
2022/12/12 09:15:59;;;;;;;0.80;0.80;;;0.80;99.90;;;;;;4951349;28;20065;-79
2022/12/12 09:18:25;;;;;;;0.80;0.80;;;0.90;99.90;;;;;;4966339;28;20057;-79
2022/12/12 09:20:53;;;;;;;0.80;0.80;;;0.80;99.90;;;;;;4943360;28;20638;-78
2022/12/12 09:23:20;;;;;;;0.80;0.80;;;0.90;99.90;;;;;;4938817;28;20120;-79
2022/12/12 09:25:46;;;;;;;0.80;0.80;;;0.80;99.90;;;;;;4935419;28;20049;-79
2022/12/12 09:28:14;;;;;;;0.80;0.80;;;0.70;99.90;;;;;;4933668;28;20038;-79
2022/12/12 09:30:41;;;;;;;0.90;0.90;;;0.80;99.90;;;;;;4945018;28;20443;-79
2022/12/12 09:33:08;;;;;;;0.80;0.80;;;0.80;99.90;;;;;;4931830;28;20765;-79
2022/12/12 09:35:34;;;;;;;0.80;0.80;;;0.80;99.90;;;;;;4930469;28;20610;-77
2022/12/12 09:38:00;;;;;;;0.80;0.80;;;0.90;99.90;;;;;;4934360;28;20560;-79
2022/12/12 09:40:50;;;;;;;0.80;0.80;;;0.90;99.90;;;;;;4937472;28;20049;-79
2022/12/12 09:43:21;;;;;;;0.80;0.80;;;0.90;99.90;;;;;;4941769;28;20527;-79
2022/12/12 09:45:50;;;;;;;0.80;0.80;;;1.00;99.90;;;;;;4940807;28;20164;-80
2022/12/12 09:48:43;;;;;;;0.80;0.80;;;1.10;99.90;;;;;;4921042;28;20502;-78
2022/12/12 09:51:12;;;;;;;0.80;0.80;;;1.10;99.90;;;;;;4937272;28;20550;-78
2022/12/12 09:53:42;;;;;;;0.80;0.80;;;1.20;99.90;;;;;;4938146;28;20119;-79
2022/12/12 09:56:32;;;;;;;0.80;0.80;;;1.20;99.90;;;;;;4934736;28;20056;-77
2022/12/12 09:59:23;;;;;;;0.80;0.80;;;1.20;99.90;;;;;;4932196;28;20052;-78
2022/12/12 10:02:09;;;;;;;0.80;0.80;;;1.30;99.90;;;;;;4945812;28;20075;-78
2022/12/12 10:05:20;;;;;;;0.80;0.80;;;1.40;99.90;;;;;;4953728;28;20116;-78
2022/12/12 10:08:19;;;;;;;0.80;0.80;;;1.50;99.90;;;;;;4933377;28;20782;-79
2022/12/12 10:10:49;;;;;;;0.82;0.82;;;1.60;99.90;;;;;;4935293;28;20073;-79
2022/12/12 10:13:24;;;;;;;0.80;0.80;;;1.70;99.90;;;;;;4956916;28;20053;-79
2022/12/12 10:16:09;;;;;;;0.80;0.80;;;1.70;99.90;;;;;;4939006;28;20499;-78
2022/12/12 10:18:44;;;;;;;0.70;0.70;;;1.50;99.90;;;;;;4939370;28;20443;-78
2022/12/12 10:21:31;;;;;;;0.80;0.80;;;1.60;99.90;;;;;;4934567;28;20072;-78
2022/12/12 10:24:22;;;;;;;0.80;0.80;;;1.60;99.90;;;;;;4932798;28;21099;-79
2022/12/12 10:27:11;;;;;;;0.80;0.80;;;1.80;99.90;;;;;;4935593;28;20053;-79
2022/12/12 10:29:46;;;;;;;0.80;0.80;;;1.70;99.90;;;;;;4936295;28;20046;-78
2022/12/12 10:32:30;;;;;;;0.80;0.80;;;1.60;99.90;;;;;;4935956;28;20304;-79
2022/12/12 10:35:02;;;;;;;0.80;0.80;;;1.60;99.90;;;;;;4945891;28;20442;-79
2022/12/12 10:37:54;;;;;;;0.80;0.80;;;1.70;99.90;;;;;;4934062;28;20521;-79
2022/12/12 10:40:39;;;;;;;0.80;0.80;;;1.80;99.90;;;;;;4935494;28;20144;-78
2022/12/12 10:43:36;;;;;;;0.80;0.80;;;1.90;99.90;;;;;;4943654;28;20780;-79
2022/12/12 10:46:35;;;;;;;0.80;0.80;;;2.00;99.90;;;;;;4918184;28;20092;-79
2022/12/12 10:49:01;;;;;;;0.75;0.75;;;1.90;99.90;;;;;;4923579;28;20951;-79
2022/12/12 10:51:29;;;;;;;0.80;0.80;;;2.10;99.90;;;;;;4937571;28;20038;-79
2022/12/12 10:53:55;;;;;;;0.70;0.70;;;2.20;99.90;;;;;;4945890;28;20052;-79
2022/12/12 10:56:25;;;;;;;0.70;0.70;;;2.30;99.90;;;;;;4948635;28;20041;-78
2022/12/12 10:59:00;;;;;;;0.80;0.80;;;2.30;99.90;;;;;;4939499;28;20061;-78
2022/12/12 11:01:39;;;;;;;0.70;0.70;;;2.30;99.90;;;;;;4941401;28;20049;-79
2022/12/12 11:04:05;;;;;;;0.70;0.70;;;2.40;99.90;;;;;;4938214;28;20156;-78
2022/12/12 11:06:37;;;;;;;0.70;0.70;;;2.40;99.90;;;;;;4942095;28;20800;-78
2022/12/12 11:09:21;;;;;;;0.70;0.70;;;2.40;99.90;;;;;;4932341;28;20132;-79
2022/12/12 11:12:09;;;;;;;0.70;0.70;;;2.50;99.90;;;;;;4939889;28;20049;-78
2022/12/12 11:14:48;;;;;;;0.75;0.75;;;2.50;99.90;;;;;;4940156;28;20053;-79
2022/12/12 11:17:25;;;;;;;0.70;0.70;;;2.50;99.90;;;;;;4956404;28;20100;-79
2022/12/12 11:19:53;;;;;;;0.70;0.70;;;2.50;99.90;;;;;;4932559;28;20453;-79
2022/12/12 11:22:19;;;;;;;0.70;0.70;;;2.60;99.90;;;;;;4942653;28;20491;-79
2022/12/12 11:24:47;;;;;;;0.80;0.80;;;2.60;99.90;;;;;;4944876;28;20041;-78
2022/12/12 11:27:29;;;;;;;0.80;0.80;;;2.60;99.90;;;;;;4942668;28;20484;-79
2022/12/12 11:29:59;;;;;;;0.70;0.70;;;2.60;99.90;;;;;;4931676;28;20053;-78
2022/12/12 11:32:55;;;;;;;0.70;0.70;;;2.60;99.90;;;;;;4934588;28;20060;-79
2022/12/12 11:35:30;;;;;;;0.70;0.70;;;2.60;99.90;;;;;;4929951;28;20057;-78
2022/12/12 11:38:06;;;;;;;0.70;0.70;;;2.70;99.90;;;;;;4941799;28;20049;-79
2022/12/12 11:40:35;;;;;;;0.80;0.80;;;2.70;99.90;;;;;;4939550;28;20091;-79
2022/12/12 11:43:21;;;;;;;0.70;0.70;;;2.70;99.90;;;;;;4935461;28;20049;-79
2022/12/12 11:46:01;;;;;;;0.70;0.70;;;2.80;99.90;;;;;;4934161;28;20119;-79
2022/12/12 11:48:32;;;;;;;0.70;0.70;;;2.70;99.90;;;;;;4956679;28;20063;-79
2022/12/12 11:50:58;;;;;;;0.70;0.70;;;2.80;99.90;;;;;;4938512;28;20085;-79
2022/12/12 11:53:25;;;;;;;0.70;0.70;;;2.80;99.90;;;;;;4939415;28;20115;-78
2022/12/12 11:56:09;;;;;;;0.70;0.70;;;2.80;99.90;;;;;;4941309;28;20059;-79
2022/12/12 11:59:01;;;;;;;0.70;0.70;;;2.80;99.90;;;;;;4940050;28;20538;-78
2022/12/12 12:02:00;;;;;;;0.70;0.70;;;2.40;99.90;;;;;;4935976;28;20737;-78
2022/12/12 12:04:38;;;;;;;0.70;0.70;;;2.70;99.90;;;;;;4884134;28;20758;-79
2022/12/12 12:07:22;;;;;;;0.70;0.70;;;2.80;99.90;;;;;;4942083;28;20405;-79
2022/12/12 12:09:55;;;;;;;0.70;0.70;;;2.80;99.90;;;;;;4937535;28;20041;-79
2022/12/12 12:12:40;;;;;;;0.70;0.70;;;2.60;99.90;;;;;;4929774;28;20385;-79
2022/12/12 12:15:33;;;;;;;0.70;0.70;;;2.50;99.90;;;;;;4935468;28;20053;-79
2022/12/12 12:17:59;;;;;;;0.70;0.70;;;2.70;99.90;;;;;;4938788;28;20071;-79
2022/12/12 12:20:45;;;;;;;0.70;0.70;;;2.90;99.90;;;;;;4938515;28;20550;-80
2022/12/12 12:23:28;;;;;;;0.70;0.70;;;2.90;99.90;;;;;;4927157;28;20069;-79
2022/12/12 12:26:04;;;;;;;0.70;0.70;;;2.70;99.90;;;;;;4934093;28;20414;-79
2022/12/12 12:28:38;;;;;;;0.70;0.70;;;2.60;99.90;;;;;;4937781;28;20076;-79
2022/12/12 12:31:32;;;;;;;0.70;0.70;;;2.70;99.90;;;;;;4947462;28;20072;-79
2022/12/12 12:34:17;;;;;;;0.70;0.70;;;2.40;99.90;;;;;;4938165;28;20052;-79
2022/12/12 12:37:20;;;;;;;0.70;0.70;;;2.60;99.90;;;;;;4941780;28;20418;-79
2022/12/12 12:39:51;;;;;;;0.80;0.80;;;2.60;99.90;;;;;;4936270;28;20129;-81
2022/12/12 12:42:41;;;;;;;0.70;0.70;;;2.50;99.90;;;;;;4936737;28;20555;-79
2022/12/12 12:45:48;;;;;;;0.70;0.70;;;2.50;99.90;;;;;;4928733;28;20837;-79
2022/12/12 12:48:36;;;;;;;0.70;0.70;;;2.60;99.90;;;;;;4920573;28;20164;-80
2022/12/12 12:51:23;;;;;;;0.70;0.70;;;2.80;99.90;;;;;;4938564;28;20076;-79
2022/12/12 12:53:59;;;;;;;0.70;0.70;;;2.90;99.90;;;;;;4939238;28;20376;-80
2022/12/12 12:56:47;;;;;;;0.70;0.70;;;2.90;99.90;;;;;;4936492;28;20128;-79
2022/12/12 12:59:21;;;;;;;0.70;0.70;;;2.90;99.90;;;;;;4937621;28;20456;-80
2022/12/12 13:02:27;;;;;;;0.70;0.70;;;2.90;99.90;;;;;;4936068;28;20222;-79
2022/12/12 13:05:11;;;;;;;0.70;0.70;;;2.90;99.90;;;;;;4939837;28;20542;-79
2022/12/12 13:07:55;;;;;;;;;;;2.70;99.90;;;;;;4938793;28;20713;-79
2022/12/12 13:10:27;;;;;;;0.80;0.80;;;2.60;99.90;;;;;;4948160;28;20019;-80
2022/12/12 13:13:32;;;;;;;0.70;0.70;;;2.80;99.90;;;;;;4940684;28;20128;-79
2022/12/12 13:16:06;;;;;;;0.77;0.77;;;2.80;99.90;;;;;;4904669;28;20073;-80
2022/12/12 13:18:33;;;;;;;0.70;0.70;;;2.60;99.90;;;;;;4935515;28;20146;-78
2022/12/12 13:21:13;;;;;;;0.70;0.70;;;2.80;99.90;;;;;;4944354;28;20053;-78
2022/12/12 13:23:46;;;;;;;0.70;0.70;;;2.90;99.90;;;;;;4936913;28;20049;-79
2022/12/12 13:26:27;;;;;;;0.70;0.70;;;2.90;99.90;;;;;;4950068;28;20435;-79
2022/12/12 13:29:32;;;;;;;0.70;0.70;;;2.90;99.90;;;;;;4946018;28;20060;-79
2022/12/12 13:32:23;;;;;;;0.70;0.70;;;2.70;99.90;;;;;;4941022;28;20867;-79
2022/12/12 13:34:53;;;;;;;0.70;0.70;;;2.50;99.90;;;;;;4922270;28;20714;-80
2022/12/12 13:37:21;;;;;;;0.70;0.70;;;2.30;99.90;;;;;;4942309;28;20044;-79
2022/12/12 13:40:01;;;;;;;0.70;0.70;;;2.40;99.90;;;;;;4943769;28;20623;-80
2022/12/12 13:42:50;;;;;;;0.80;0.80;;;2.40;99.90;;;;;;4939975;28;21537;-80
2022/12/12 13:45:34;;;;;;;0.70;0.70;;;2.60;99.90;;;;;;4937796;28;20049;-79